createdAt,value
2022-11-14T00:00:33.703Z,57.10
2022-11-14T00:03:20.146Z,57.14
2022-11-14T00:06:08.417Z,57.11
2022-11-14T00:08:54.950Z,57.12
2022-11-14T00:11:41.994Z,57.19
2022-11-14T00:14:28.556Z,57.06
2022-11-14T00:17:15.374Z,57.22
2022-11-14T00:20:02.794Z,57.23
2022-11-14T00:22:49.328Z,57.27
2022-11-14T00:25:36.031Z,57.04
2022-11-14T00:28:22.451Z,56.96
2022-11-14T00:31:11.531Z,57.00
2022-11-14T00:33:58.215Z,57.08
2022-11-14T00:36:45.135Z,56.72
2022-11-14T00:39:32.059Z,56.74
2022-11-14T00:42:18.530Z,56.67
2022-11-14T00:45:06.026Z,56.74
2022-11-14T00:47:52.478Z,56.88
2022-11-14T00:50:39.417Z,56.67
2022-11-14T00:53:25.831Z,56.80
2022-11-14T00:56:12.662Z,56.90
2022-11-14T00:58:59.075Z,56.76
2022-11-14T01:01:45.879Z,56.71
2022-11-14T01:04:32.687Z,56.61
2022-11-14T01:07:19.142Z,56.44
2022-11-14T01:10:06.190Z,56.46
2022-11-14T01:12:52.852Z,56.44
2022-11-14T01:15:42.450Z,56.37
2022-11-14T01:18:30.421Z,56.41
2022-11-14T01:21:17.354Z,56.54
2022-11-14T01:24:04.654Z,56.67
2022-11-14T01:26:51.543Z,56.59
2022-11-14T01:29:37.897Z,56.71
2022-11-14T01:32:25.870Z,56.60
2022-11-14T01:35:12.792Z,56.47
2022-11-14T01:37:59.144Z,56.42
2022-11-14T01:40:46.758Z,56.84
2022-11-14T01:43:39.347Z,57.10
2022-11-14T01:46:37.762Z,56.82
2022-11-14T01:49:45.236Z,56.64
2022-11-14T01:52:37.810Z,56.72
2022-11-14T01:55:24.575Z,56.71
2022-11-14T01:58:11.733Z,56.74
2022-11-14T02:00:59.045Z,56.53
2022-11-14T02:03:50.260Z,56.32
2022-11-14T02:06:38.291Z,56.40
2022-11-14T02:09:26.175Z,56.58
2022-11-14T02:12:15.829Z,56.82
2022-11-14T02:15:02.777Z,56.62
2022-11-14T02:17:49.553Z,56.79
2022-11-14T02:20:43.402Z,56.75
2022-11-14T02:23:32.781Z,56.78
2022-11-14T02:26:21.722Z,56.40
2022-11-14T02:29:11.183Z,56.60
2022-11-14T02:31:58.107Z,56.57
2022-11-14T02:34:44.562Z,56.39
2022-11-14T02:37:31.477Z,56.59
2022-11-14T02:40:18.290Z,56.38
2022-11-14T02:43:05.296Z,56.41
2022-11-14T02:45:52.103Z,56.34
2022-11-14T02:48:38.541Z,56.50
2022-11-14T02:51:25.141Z,56.41
2022-11-14T02:54:11.907Z,56.47
2022-11-14T02:56:58.730Z,56.51
2022-11-14T02:59:45.173Z,56.43
2022-11-14T03:02:31.764Z,56.61
2022-11-14T03:05:18.402Z,56.63
2022-11-14T03:08:04.844Z,56.65
2022-11-14T03:10:51.539Z,56.62
2022-11-14T03:13:38.324Z,56.58
2022-11-14T03:16:24.908Z,56.64
2022-11-14T03:19:11.571Z,56.49
2022-11-14T03:21:58.150Z,56.69
2022-11-14T03:24:44.836Z,56.61
2022-11-14T03:27:31.617Z,56.66
2022-11-14T03:30:18.474Z,56.74
2022-11-14T03:33:04.864Z,56.67
2022-11-14T03:35:52.651Z,56.42
2022-11-14T03:38:39.189Z,56.39
2022-11-14T03:41:25.898Z,56.48
2022-11-14T03:44:12.462Z,56.29
2022-11-14T03:46:59.029Z,56.46
2022-11-14T03:49:45.465Z,56.61
2022-11-14T03:52:31.905Z,56.72
2022-11-14T03:55:18.925Z,56.50
2022-11-14T03:58:05.398Z,56.60
2022-11-14T04:00:52.373Z,56.67
2022-11-14T04:03:38.755Z,56.67
2022-11-14T04:06:25.057Z,56.65
2022-11-14T04:09:11.875Z,56.70
2022-11-14T04:11:58.540Z,56.74
2022-11-14T04:14:45.246Z,57.02
2022-11-14T04:17:35.680Z,56.90
2022-11-14T04:20:25.578Z,56.78
2022-11-14T04:23:12.471Z,56.92
2022-11-14T04:25:59.055Z,56.84
2022-11-14T04:28:45.737Z,56.89
2022-11-14T04:31:32.414Z,56.81
2022-11-14T04:34:18.979Z,56.74
2022-11-14T04:37:05.284Z,56.74
2022-11-14T04:39:51.991Z,56.57
2022-11-14T04:42:38.410Z,56.65
2022-11-14T04:45:25.153Z,56.45
2022-11-14T04:48:12.156Z,56.94
2022-11-14T04:50:58.819Z,57.20
2022-11-14T04:53:45.404Z,57.33
2022-11-14T04:56:31.968Z,57.26
2022-11-14T04:59:20.800Z,57.19
2022-11-14T05:02:07.709Z,56.66
2022-11-14T05:04:54.411Z,57.00
2022-11-14T05:07:40.835Z,56.84
2022-11-14T05:10:27.538Z,57.05
2022-11-14T05:13:13.979Z,57.23
2022-11-14T05:16:01.601Z,57.20
2022-11-14T05:18:48.163Z,57.24
2022-11-14T05:21:35.088Z,57.41
2022-11-14T05:24:21.786Z,57.60
2022-11-14T05:27:08.454Z,57.26
2022-11-14T05:29:55.616Z,57.55
2022-11-14T05:32:42.313Z,57.50
2022-11-14T05:35:28.766Z,57.19
2022-11-14T05:38:15.182Z,57.39
2022-11-14T05:41:08.252Z,57.55
2022-11-14T05:43:54.929Z,57.47
2022-11-14T05:46:41.591Z,57.24
2022-11-14T05:49:28.180Z,57.06
2022-11-14T05:52:16.037Z,57.26
2022-11-14T05:55:02.618Z,57.05
2022-11-14T05:57:49.527Z,57.29
2022-11-14T06:00:42.409Z,57.12
2022-11-14T06:03:41.248Z,56.79
2022-11-14T06:06:27.572Z,56.69
2022-11-14T06:09:14.494Z,56.80
2022-11-14T06:12:01.176Z,56.70
2022-11-14T06:14:47.765Z,57.09
2022-11-14T06:17:34.301Z,57.14
2022-11-14T06:20:21.617Z,57.51
2022-11-14T06:23:08.146Z,57.91
2022-11-14T06:26:06.853Z,57.63
2022-11-14T06:28:54.257Z,57.76
2022-11-14T06:31:40.913Z,58.36
2022-11-14T06:34:27.858Z,57.86
2022-11-14T06:37:14.299Z,58.13
2022-11-14T06:40:00.743Z,57.96
2022-11-14T06:42:47.284Z,58.00
2022-11-14T06:45:33.872Z,57.91
2022-11-14T06:48:20.435Z,57.89
2022-11-14T06:51:07.597Z,57.94
2022-11-14T06:53:54.155Z,58.02
2022-11-14T06:56:40.698Z,58.27
2022-11-14T06:59:27.524Z,58.35
2022-11-14T07:02:20.453Z,58.32
2022-11-14T07:05:08.936Z,58.34
2022-11-14T07:07:57.390Z,58.42
2022-11-14T07:10:44.070Z,58.43
2022-11-14T07:13:31.714Z,58.47
2022-11-14T07:16:19.237Z,58.60
2022-11-14T07:19:09.301Z,58.38
2022-11-14T07:21:55.757Z,58.28
2022-11-14T07:24:42.543Z,58.32
2022-11-14T07:27:28.847Z,58.30
2022-11-14T07:30:16.032Z,58.20
2022-11-14T07:33:02.336Z,58.34
2022-11-14T07:35:50.596Z,58.35
2022-11-14T07:38:38.578Z,58.40
2022-11-14T07:41:25.994Z,58.43
2022-11-14T07:44:14.272Z,58.40
2022-11-14T07:47:01.393Z,58.49
2022-11-14T07:49:50.001Z,58.23
2022-11-14T07:52:41.492Z,58.21
2022-11-14T07:55:28.661Z,58.23
2022-11-14T07:58:16.545Z,58.25
2022-11-14T08:01:05.395Z,58.03
2022-11-14T08:03:54.926Z,57.93
2022-11-14T08:06:41.495Z,57.77
2022-11-14T08:09:28.408Z,57.92
2022-11-14T08:12:14.611Z,57.68
2022-11-14T08:15:01.436Z,57.46
2022-11-14T08:17:48.122Z,57.53
2022-11-14T08:20:34.563Z,57.62
2022-11-14T08:23:21.122Z,57.47
2022-11-14T08:26:07.565Z,57.13
2022-11-14T08:28:54.950Z,57.27
2022-11-14T08:31:41.270Z,57.28
2022-11-14T08:34:29.412Z,56.77
2022-11-14T08:37:16.315Z,57.11
2022-11-14T08:40:04.335Z,56.80
2022-11-14T08:42:51.748Z,56.94
2022-11-14T08:45:38.642Z,56.86
2022-11-14T08:48:25.344Z,57.23
2022-11-14T08:51:11.913Z,57.33
2022-11-14T08:53:58.929Z,57.12
2022-11-14T08:56:45.522Z,57.49
2022-11-14T08:59:32.776Z,58.11
2022-11-14T09:02:19.239Z,58.07
2022-11-14T09:05:06.142Z,58.04
2022-11-14T09:07:52.825Z,58.24
2022-11-14T09:10:39.625Z,58.46
2022-11-14T09:13:27.704Z,59.04
2022-11-14T09:16:14.792Z,58.77
2022-11-14T09:19:01.496Z,59.53
2022-11-14T09:21:47.918Z,59.08
2022-11-14T09:24:34.718Z,59.13
2022-11-14T09:27:21.641Z,59.59
2022-11-14T09:30:08.924Z,59.37
2022-11-14T09:33:02.836Z,59.76
2022-11-14T09:36:01.129Z,59.40
2022-11-14T09:38:47.951Z,59.35
2022-11-14T09:41:56.576Z,59.31
2022-11-14T09:45:07.394Z,59.31
2022-11-14T09:48:07.657Z,59.59
2022-11-14T09:51:03.924Z,59.54
2022-11-14T09:54:27.568Z,59.02
2022-11-14T09:57:20.252Z,59.07
2022-11-14T10:00:15.193Z,59.37
2022-11-14T10:03:23.956Z,59.25
2022-11-14T10:06:28.883Z,59.39
2022-11-14T10:09:51.342Z,59.06
2022-11-14T10:12:56.262Z,59.11
2022-11-14T10:16:01.771Z,58.99
2022-11-14T10:19:10.934Z,59.06
2022-11-14T10:22:06.094Z,59.05
2022-11-14T10:25:14.538Z,59.22
2022-11-14T10:28:37.899Z,59.25
2022-11-14T10:31:45.465Z,59.46
2022-11-14T10:34:47.647Z,59.64
2022-11-14T10:37:36.739Z,58.90
2022-11-14T10:40:42.114Z,59.06
2022-11-14T10:43:51.011Z,58.96
2022-11-14T10:46:48.386Z,58.78
2022-11-14T10:49:37.320Z,58.69
2022-11-14T10:52:41.924Z,58.33
2022-11-14T10:55:57.492Z,58.14
2022-11-14T10:58:47.829Z,58.13
2022-11-14T11:01:41.055Z,58.30
2022-11-14T11:04:32.796Z,58.36
2022-11-14T11:07:47.320Z,57.93
2022-11-14T11:10:59.922Z,57.96
2022-11-14T11:13:59.904Z,57.94
2022-11-14T11:16:48.145Z,57.84
2022-11-14T11:19:34.837Z,57.78
2022-11-14T11:22:36.519Z,57.84
2022-11-14T11:25:26.695Z,57.45
2022-11-14T11:28:19.858Z,57.62
2022-11-14T11:31:10.119Z,57.59
2022-11-14T11:34:03.043Z,57.51
2022-11-14T11:37:14.147Z,57.16
2022-11-14T11:40:06.426Z,57.54
2022-11-14T11:46:28.759Z,57.25
2022-11-14T11:49:23.938Z,57.26
2022-11-14T11:52:46.259Z,57.21
2022-11-14T11:55:51.326Z,57.07
2022-11-14T11:58:57.549Z,56.95
2022-11-14T12:01:44.349Z,56.63
2022-11-14T12:04:31.515Z,56.82
2022-11-14T12:07:33.701Z,56.61
2022-11-14T12:10:29.117Z,56.35
2022-11-14T12:14:00.079Z,56.56
2022-11-14T12:17:16.523Z,56.63
2022-11-14T12:20:27.468Z,56.24
2022-11-14T12:23:34.670Z,56.17
2022-11-14T12:26:54.692Z,56.41
2022-11-14T12:30:09.701Z,56.18
2022-11-14T12:33:39.725Z,56.24
2022-11-14T12:36:33.846Z,55.75
2022-11-14T12:39:31.065Z,55.71
2022-11-14T12:42:21.827Z,55.58
2022-11-14T12:45:43.090Z,55.75
2022-11-14T12:48:38.927Z,55.43
2022-11-14T12:51:25.531Z,55.27
2022-11-14T12:54:51.510Z,55.49
2022-11-14T12:57:55.930Z,54.96
2022-11-14T13:00:45.148Z,54.95
2022-11-14T13:04:09.848Z,55.11
2022-11-14T13:07:44.652Z,54.99
2022-11-14T13:10:40.098Z,54.87
2022-11-14T13:13:45.520Z,54.62
2022-11-14T13:16:51.286Z,54.50
2022-11-14T13:20:05.563Z,54.65
2022-11-14T13:22:52.127Z,54.49
2022-11-14T13:25:38.914Z,54.39
2022-11-14T13:28:37.963Z,54.70
2022-11-14T13:31:37.716Z,54.46
2022-11-14T13:34:51.780Z,54.53
2022-11-14T13:38:01.973Z,54.81
2022-11-14T13:41:27.445Z,54.34
2022-11-14T13:44:47.586Z,54.38
2022-11-14T13:48:11.114Z,54.59
2022-11-14T13:51:28.642Z,54.21
2022-11-14T13:54:18.519Z,53.99
2022-11-14T13:57:42.660Z,53.97
2022-11-14T14:00:47.988Z,53.58
2022-11-14T14:04:07.302Z,53.64
2022-11-14T14:07:33.979Z,53.39
2022-11-14T14:10:20.255Z,52.97
2022-11-14T14:13:30.402Z,53.17
2022-11-14T14:16:41.864Z,52.80
2022-11-14T14:19:52.304Z,52.53
2022-11-14T14:23:07.066Z,52.28
2022-11-14T14:26:00.119Z,51.29
2022-11-14T14:29:00.542Z,51.61
2022-11-14T14:31:50.276Z,51.08
2022-11-14T14:34:36.600Z,51.26
2022-11-14T14:37:27.489Z,50.90
2022-11-14T14:40:31.426Z,51.32
2022-11-14T14:43:35.404Z,51.16
2022-11-14T14:46:32.516Z,50.71
2022-11-14T14:49:37.790Z,51.02
2022-11-14T14:52:33.134Z,50.99
2022-11-14T14:55:32.997Z,50.80
2022-11-14T14:58:22.943Z,50.49
2022-11-14T15:01:18.910Z,50.74
2022-11-14T15:04:14.165Z,50.83
2022-11-14T15:07:00.566Z,50.79
2022-11-14T15:09:57.873Z,51.03
2022-11-14T15:12:45.373Z,50.74
2022-11-14T15:15:33.874Z,50.86
2022-11-14T15:18:31.733Z,51.00
2022-11-14T15:21:23.203Z,50.89
2022-11-14T15:24:22.251Z,50.87
2022-11-14T15:27:18.632Z,51.06
2022-11-14T15:30:19.618Z,51.00
2022-11-14T15:33:29.339Z,51.25
2022-11-14T15:36:17.947Z,50.72
2022-11-14T15:39:22.858Z,51.27
2022-11-14T15:42:29.445Z,51.07
2022-11-14T15:45:39.311Z,51.12
2022-11-14T15:48:26.115Z,51.01
2022-11-14T15:51:12.651Z,51.17
2022-11-14T15:53:59.351Z,51.44
2022-11-14T15:56:45.657Z,51.53
2022-11-14T15:59:32.485Z,51.47
2022-11-14T16:02:32.718Z,51.59
2022-11-14T16:05:27.935Z,51.48
2022-11-14T16:08:14.830Z,51.50
2022-11-14T16:11:01.172Z,51.70
2022-11-14T16:13:47.712Z,51.69
2022-11-14T16:16:34.517Z,51.69
2022-11-14T16:19:22.058Z,51.72
2022-11-14T16:22:18.205Z,51.79
2022-11-14T16:25:05.383Z,51.61
2022-11-14T16:27:51.827Z,51.75
2022-11-14T16:30:38.514Z,51.76
2022-11-14T16:33:24.958Z,51.68
2022-11-14T16:36:12.696Z,51.95
2022-11-14T16:39:02.161Z,52.04
2022-11-14T16:41:48.820Z,51.97
2022-11-14T16:44:41.092Z,51.94
2022-11-14T16:47:32.146Z,52.16
2022-11-14T16:50:20.513Z,52.12
2022-11-14T16:53:07.214Z,52.13
2022-11-14T16:55:53.514Z,52.23
2022-11-14T16:58:42.137Z,52.38
2022-11-14T17:01:28.632Z,52.29
2022-11-14T17:04:15.138Z,52.29
2022-11-14T17:07:01.623Z,52.44
2022-11-14T17:09:48.276Z,52.18
2022-11-14T17:12:34.930Z,52.44
2022-11-14T17:15:21.276Z,52.39
2022-11-14T17:18:07.839Z,52.48
2022-11-14T17:20:54.275Z,52.35
2022-11-14T17:23:41.082Z,52.31
2022-11-14T17:26:28.346Z,52.34
2022-11-14T17:29:15.025Z,52.48
2022-11-14T17:32:01.588Z,52.39
2022-11-14T17:34:48.511Z,52.38
2022-11-14T17:37:35.200Z,52.20
2022-11-14T17:40:21.774Z,52.29
2022-11-14T17:43:08.341Z,52.25
2022-11-14T17:45:58.032Z,52.45
2022-11-14T17:48:45.188Z,52.33
2022-11-14T17:51:32.569Z,52.45
2022-11-14T17:54:19.267Z,52.57
2022-11-14T17:57:06.674Z,52.53
2022-11-14T17:59:53.479Z,52.66
2022-11-14T18:02:40.259Z,52.61
2022-11-14T18:05:26.716Z,52.71
2022-11-14T18:08:14.607Z,52.72
2022-11-14T18:11:03.068Z,52.74
2022-11-14T18:13:53.377Z,52.84
2022-11-14T18:17:10.415Z,52.66
2022-11-14T18:19:46.515Z,52.87
2022-11-14T18:22:32.976Z,53.28
2022-11-14T18:25:19.541Z,53.06
2022-11-14T18:28:05.980Z,53.10
2022-11-14T18:30:56.870Z,53.02
2022-11-14T18:33:43.889Z,53.15
2022-11-14T18:36:30.334Z,53.04
2022-11-14T18:39:17.036Z,53.21
2022-11-14T18:42:03.835Z,53.03
2022-11-14T18:44:50.642Z,53.49
2022-11-14T18:47:37.062Z,53.29
2022-11-14T18:50:23.762Z,53.57
2022-11-14T18:53:10.307Z,53.50
2022-11-14T18:55:56.887Z,53.56
2022-11-14T18:58:44.430Z,53.48
2022-11-14T19:01:32.259Z,53.52
2022-11-14T19:04:19.815Z,53.75
2022-11-14T19:07:06.298Z,53.62
2022-11-14T19:09:53.129Z,53.81
2022-11-14T19:12:39.988Z,53.82
2022-11-14T19:15:26.429Z,53.78
2022-11-14T19:18:13.110Z,53.85
2022-11-14T19:21:02.077Z,53.73
2022-11-14T19:23:50.541Z,53.94
2022-11-14T19:26:37.460Z,53.83
2022-11-14T19:29:23.924Z,53.64
2022-11-14T19:32:10.371Z,53.52
2022-11-14T19:34:57.171Z,53.71
2022-11-14T19:37:43.829Z,53.46
2022-11-14T19:40:31.017Z,53.59
2022-11-14T19:43:18.998Z,53.48
2022-11-14T19:46:07.117Z,53.46
2022-11-14T19:49:01.361Z,53.25
2022-11-14T19:51:49.004Z,53.19
2022-11-14T19:54:35.470Z,53.01
2022-11-14T19:57:22.030Z,53.01
2022-11-14T20:00:09.326Z,52.93
2022-11-14T20:02:56.128Z,52.84
2022-11-14T20:05:42.557Z,52.82
2022-11-14T20:08:29.363Z,52.71
2022-11-14T20:11:16.501Z,52.95
2022-11-14T20:14:05.663Z,52.78
2022-11-14T20:16:52.054Z,52.77
2022-11-14T20:19:38.732Z,52.67
2022-11-14T20:22:25.273Z,52.61
2022-11-14T20:25:15.828Z,52.73
2022-11-14T20:28:02.978Z,52.86
2022-11-14T20:30:49.542Z,52.59
2022-11-14T20:33:41.985Z,52.69
2022-11-14T20:36:38.962Z,52.67
2022-11-14T20:39:35.277Z,52.74
2022-11-14T20:42:21.692Z,52.44
2022-11-14T20:45:09.094Z,52.35
2022-11-14T20:47:55.897Z,52.58
2022-11-14T20:50:42.607Z,52.56
2022-11-14T20:53:29.479Z,52.61
2022-11-14T20:56:17.649Z,52.49
2022-11-14T20:59:04.214Z,52.28
2022-11-14T21:01:50.917Z,52.52
2022-11-14T21:04:37.453Z,52.25
2022-11-14T21:07:23.913Z,52.34
2022-11-14T21:10:29.303Z,52.44
2022-11-14T21:13:37.347Z,52.50
2022-11-14T21:16:39.490Z,52.53
2022-11-14T21:19:26.307Z,52.42
2022-11-14T21:22:13.470Z,52.63
2022-11-14T21:25:00.754Z,52.43
2022-11-14T21:27:47.305Z,52.42
2022-11-14T21:30:34.840Z,52.46
2022-11-14T21:33:21.403Z,51.94
2022-11-14T21:36:37.573Z,52.11
2022-11-14T21:39:17.741Z,52.15
2022-11-14T21:42:04.588Z,52.02
2022-11-14T21:44:51.297Z,51.96
2022-11-14T21:47:37.833Z,51.94
2022-11-14T21:50:24.637Z,52.22
2022-11-14T21:53:16.222Z,51.81
2022-11-14T21:56:23.323Z,51.93
2022-11-14T21:59:16.379Z,52.36
2022-11-14T22:02:21.769Z,52.12
2022-11-14T22:05:08.709Z,51.89
2022-11-14T22:07:55.494Z,52.01
2022-11-14T22:10:42.075Z,51.83
2022-11-14T22:13:31.094Z,52.04
2022-11-14T22:16:19.656Z,51.77
2022-11-14T22:19:06.572Z,51.85
2022-11-14T22:21:54.427Z,52.01
2022-11-14T22:24:40.904Z,51.88
2022-11-14T22:27:27.570Z,51.82
2022-11-14T22:30:14.255Z,51.88
2022-11-14T22:33:00.797Z,51.72
2022-11-14T22:35:47.618Z,51.69
2022-11-14T22:38:36.227Z,51.76
2022-11-14T22:41:33.434Z,51.59
2022-11-14T22:44:20.159Z,51.36
2022-11-14T22:47:06.604Z,51.47
2022-11-14T22:49:54.604Z,51.27
2022-11-14T22:52:41.018Z,51.29
2022-11-14T22:55:27.613Z,51.13
2022-11-14T22:58:14.981Z,51.09
2022-11-14T23:01:02.646Z,51.46
2022-11-14T23:03:56.988Z,51.35
2022-11-14T23:06:43.309Z,51.18
2022-11-14T23:09:30.135Z,51.09
2022-11-14T23:12:16.575Z,51.25
2022-11-14T23:15:03.477Z,51.18
2022-11-14T23:17:49.925Z,51.17
2022-11-14T23:20:36.627Z,51.27
2022-11-14T23:23:23.167Z,51.31
2022-11-14T23:26:18.008Z,51.46
2022-11-14T23:29:05.077Z,51.34
2022-11-14T23:31:51.493Z,51.31
2022-11-14T23:34:38.195Z,51.38
2022-11-14T23:37:24.739Z,51.14
2022-11-14T23:40:11.926Z,51.02
2022-11-14T23:42:58.488Z,51.01
2022-11-14T23:45:45.270Z,51.10
2022-11-14T23:48:32.087Z,51.14
2022-11-14T23:51:18.662Z,50.96
2022-11-14T23:54:05.335Z,51.14
2022-11-14T23:56:51.998Z,50.99
2022-11-14T23:59:38.956Z,51.09
